createdAt,value
2023-04-10T00:03:33.920Z,101632.81
2023-04-10T00:08:35.502Z,101620.44
2023-04-10T00:13:37.060Z,101620.75
2023-04-10T00:18:38.586Z,101612.38
2023-04-10T00:23:40.123Z,101607.56
2023-04-10T00:28:41.629Z,101602.88
2023-04-10T00:33:43.242Z,101592.47
2023-04-10T00:38:44.841Z,101589.06
2023-04-10T00:43:46.474Z,101596.88
2023-04-10T00:48:48.206Z,101592.47
2023-04-10T00:53:51.842Z,101596.03
2023-04-10T00:58:53.586Z,101576.81
2023-04-10T01:03:56.722Z,101564.56
2023-04-10T01:09:12.708Z,101574.94
2023-04-10T01:14:33.136Z,101555.22
2023-04-10T01:20:14.547Z,101564.72
2023-04-10T01:25:34.714Z,101557.06
2023-04-10T01:30:37.655Z,101553.22
2023-04-10T01:35:43.222Z,101544.75
2023-04-10T01:40:46.715Z,101511.81
2023-04-10T01:45:54.285Z,101518.69
2023-04-10T01:50:56.755Z,101515.78
2023-04-10T01:55:59.812Z,101526.91
2023-04-10T02:01:01.847Z,101522.91
2023-04-10T02:06:28.478Z,101514.81
2023-04-10T02:11:58.124Z,101498.47
2023-04-10T02:17:03.590Z,101475.88
2023-04-10T02:22:05.994Z,101473.25
2023-04-10T02:27:08.675Z,101484.22
2023-04-10T02:32:10.592Z,101483.75
2023-04-10T02:37:12.398Z,101487.19
2023-04-10T02:42:14.625Z,101476.09
2023-04-10T02:47:20.492Z,101472.88
2023-04-10T02:52:23.604Z,101492.34
2023-04-10T02:57:25.792Z,101501.13
2023-04-10T03:02:27.937Z,101490.69
2023-04-10T03:07:33.568Z,101480.41
2023-04-10T03:12:35.687Z,101481.63
2023-04-10T03:17:37.724Z,101458.59
2023-04-10T03:22:41.117Z,101469.81
2023-04-10T03:27:44.257Z,101453.91
2023-04-10T03:32:46.367Z,101467.63
2023-04-10T03:37:48.138Z,101455.69
2023-04-10T03:42:50.199Z,101433.34
2023-04-10T03:53:22.238Z,101425.16
2023-04-10T03:58:25.382Z,101428.59
2023-04-10T04:03:30.199Z,101419.38
2023-04-10T04:08:41.291Z,101397.19
2023-04-10T04:13:53.911Z,101401.47
2023-04-10T04:19:15.675Z,101403.94
2023-04-10T04:24:39.007Z,101412.69
2023-04-10T04:29:54.430Z,101415.03
2023-04-10T04:35:19.524Z,101399.97
2023-04-10T04:40:41.733Z,101422.97
2023-04-10T04:46:02.901Z,101418.19
2023-04-10T04:51:24.604Z,101427.09
2023-04-10T04:56:37.097Z,101422.56
2023-04-10T05:01:51.060Z,101414.22
2023-04-10T05:07:09.206Z,101413.41
2023-04-10T05:12:29.279Z,101420.25
2023-04-10T05:17:37.069Z,101415.16
2023-04-10T05:23:02.785Z,101411.31
2023-04-10T05:28:28.880Z,101427.72
2023-04-10T05:33:45.903Z,101429.88
2023-04-10T05:39:07.147Z,101428.13
2023-04-10T05:44:28.061Z,101420.28
2023-04-10T05:50:02.097Z,101430.59
2023-04-10T05:55:27.553Z,101447.13
2023-04-10T06:00:52.419Z,101438.00
2023-04-10T06:06:21.262Z,101444.34
2023-04-10T06:11:25.736Z,101426.84
2023-04-10T06:16:30.462Z,101427.19
2023-04-10T06:21:32.702Z,101425.94
2023-04-10T06:26:34.866Z,101417.84
2023-04-10T06:31:38.935Z,101415.38
2023-04-10T06:36:41.444Z,101412.41
2023-04-10T06:41:44.171Z,101421.38
2023-04-10T06:47:17.314Z,101436.84
2023-04-10T06:52:19.550Z,101433.72
2023-04-10T06:57:21.688Z,101453.88
2023-04-10T07:02:23.795Z,101441.13
2023-04-10T07:07:25.761Z,101438.28
2023-04-10T07:12:27.632Z,101448.69
2023-04-10T07:17:29.509Z,101435.59
2023-04-10T07:22:31.706Z,101419.94
2023-04-10T07:27:34.670Z,101422.31
2023-04-10T07:32:36.353Z,101416.81
2023-04-10T07:37:38.800Z,101404.94
2023-04-10T07:42:41.065Z,101387.03
2023-04-10T07:47:43.587Z,101392.28
2023-04-10T07:52:45.381Z,101378.78
2023-04-10T07:57:48.136Z,101389.72
2023-04-10T08:02:50.679Z,101373.63
2023-04-10T08:07:53.131Z,101364.81
2023-04-10T08:12:55.562Z,101376.56
2023-04-10T08:17:57.435Z,101384.72
2023-04-10T08:23:12.374Z,101372.69
2023-04-10T08:28:21.588Z,101358.13
2023-04-10T08:33:23.828Z,101368.75
2023-04-10T08:38:26.222Z,101358.97
2023-04-10T08:43:32.323Z,101352.19
2023-04-10T08:49:05.062Z,101343.44
2023-04-10T08:54:10.978Z,101328.66
2023-04-10T08:59:13.014Z,101324.63
2023-04-10T09:04:15.601Z,101320.38
2023-04-10T09:09:18.403Z,101289.88
2023-04-10T09:14:25.655Z,101297.81
2023-04-10T09:19:32.292Z,101291.50
2023-04-10T09:24:42.981Z,101278.66
2023-04-10T09:29:47.536Z,101249.59
2023-04-10T09:34:56.126Z,101259.78
2023-04-10T09:40:08.185Z,101269.34
2023-04-10T09:45:10.262Z,101267.97
2023-04-10T09:50:12.538Z,101259.94
2023-04-10T09:55:17.754Z,101263.38
2023-04-10T10:00:21.860Z,101224.53
2023-04-10T10:05:25.075Z,101235.88
2023-04-10T10:10:30.253Z,101225.38
2023-04-10T10:15:51.823Z,101219.16
2023-04-10T10:20:54.474Z,101230.28
2023-04-10T10:25:58.355Z,101215.41
2023-04-10T10:31:00.904Z,101220.44
2023-04-10T10:36:04.685Z,101201.00
2023-04-10T10:41:29.497Z,101187.41
2023-04-10T10:46:40.799Z,101175.75
2023-04-10T10:51:51.728Z,101149.31
2023-04-10T10:56:53.305Z,101143.25
2023-04-10T11:02:14.360Z,101118.50
2023-04-10T11:07:16.303Z,101091.84
2023-04-10T11:12:25.589Z,101103.03
2023-04-10T11:17:52.851Z,101089.44
2023-04-10T11:23:11.041Z,101076.72
2023-04-10T11:28:36.606Z,101073.56
2023-04-10T11:33:38.204Z,101055.19
2023-04-10T11:38:39.836Z,101050.22
2023-04-10T11:43:41.961Z,101039.59
2023-04-10T11:48:43.916Z,101031.41
2023-04-10T11:53:45.646Z,101023.53
2023-04-10T11:58:50.707Z,101021.47
2023-04-10T12:03:52.520Z,101005.84
2023-04-10T12:08:54.498Z,101015.38
2023-04-10T12:13:57.357Z,100992.66
2023-04-10T12:18:59.064Z,100981.84
2023-04-10T12:24:00.754Z,100982.19
2023-04-10T12:29:02.461Z,100970.09
2023-04-10T12:34:04.376Z,100968.28
2023-04-10T12:39:22.519Z,100957.72
2023-04-10T12:44:24.172Z,100969.53
2023-04-10T12:49:25.767Z,100943.25
2023-04-10T12:54:32.516Z,100942.97
2023-04-10T12:59:34.301Z,100949.69
2023-04-10T13:04:36.066Z,100951.66
2023-04-10T13:09:37.820Z,100933.00
2023-04-10T13:14:39.354Z,100921.69
2023-04-10T13:19:40.877Z,100903.63
2023-04-10T13:24:43.169Z,100892.47
2023-04-10T13:29:44.658Z,100884.25
2023-04-10T13:34:46.171Z,100879.47
2023-04-10T13:39:47.703Z,100863.97
2023-04-10T13:44:49.210Z,100853.59
2023-04-10T13:49:50.744Z,100835.81
2023-04-10T13:54:52.265Z,100814.91
2023-04-10T13:59:53.950Z,100802.16
2023-04-10T14:04:55.463Z,100793.91
2023-04-10T14:09:56.983Z,100793.03
2023-04-10T14:14:59.228Z,100786.31
2023-04-10T14:20:00.740Z,100781.00
2023-04-10T14:25:12.461Z,100773.88
2023-04-10T14:30:14.974Z,100769.72
2023-04-10T14:35:17.017Z,100753.72
2023-04-10T14:40:22.089Z,100744.78
2023-04-10T14:45:23.727Z,100728.38
2023-04-10T14:50:25.298Z,100727.00
2023-04-10T14:55:29.357Z,100727.22
2023-04-10T15:00:30.893Z,100715.59
2023-04-10T15:05:32.513Z,100718.06
2023-04-10T15:10:34.083Z,100711.38
2023-04-10T15:15:35.650Z,100730.88
2023-04-10T15:20:38.288Z,100734.50
2023-04-10T15:25:39.838Z,100717.41
2023-04-10T15:30:45.139Z,100723.81
2023-04-10T15:35:48.817Z,100732.09
2023-04-10T15:40:50.372Z,100717.03
2023-04-10T15:45:51.961Z,100719.34
2023-04-10T15:50:53.539Z,100716.38
2023-04-10T15:55:55.112Z,100710.44
2023-04-10T16:00:56.650Z,100692.22
2023-04-10T16:05:58.248Z,100678.66
2023-04-10T16:10:59.876Z,100678.31
2023-04-10T16:16:01.493Z,100675.94
2023-04-10T16:21:07.618Z,100670.34
2023-04-10T16:26:09.147Z,100668.94
2023-04-10T16:31:10.881Z,100656.28
2023-04-10T16:36:12.476Z,100654.66
2023-04-10T16:41:14.051Z,100637.38
2023-04-10T16:46:15.664Z,100619.81
2023-04-10T16:51:18.213Z,100625.47
2023-04-10T16:56:19.771Z,100604.16
2023-04-10T17:01:22.787Z,100588.00
2023-04-10T17:06:24.341Z,100576.41
2023-04-10T17:11:25.907Z,100562.72
2023-04-10T17:16:29.217Z,100546.59
2023-04-10T17:21:30.742Z,100537.38
2023-04-10T17:26:32.281Z,100532.56
2023-04-10T17:31:33.867Z,100521.34
2023-04-10T17:36:35.460Z,100515.91
2023-04-10T17:41:36.987Z,100503.41
2023-04-10T17:46:38.589Z,100486.25
2023-04-10T17:51:40.105Z,100495.47
2023-04-10T17:56:42.074Z,100487.75
2023-04-10T18:01:44.184Z,100494.09
2023-04-10T18:06:45.806Z,100494.34
2023-04-10T18:11:48.084Z,100510.47
2023-04-10T18:16:49.605Z,100491.16
2023-04-10T18:21:51.181Z,100498.69
2023-04-10T18:26:52.723Z,100511.59
2023-04-10T18:31:54.284Z,100512.63
2023-04-10T18:36:55.818Z,100514.34
2023-04-10T18:41:57.349Z,100486.97
2023-04-10T18:47:04.440Z,100497.97
2023-04-10T18:52:06.741Z,100499.09
2023-04-10T18:57:08.295Z,100470.94
2023-04-10T19:02:10.128Z,100497.50
2023-04-10T19:07:11.859Z,100496.19
2023-04-10T19:12:13.540Z,100486.53
2023-04-10T19:17:17.885Z,100484.47
2023-04-10T19:22:19.702Z,100501.34
2023-04-10T19:27:21.372Z,100499.34
2023-04-10T19:32:24.115Z,100515.75
2023-04-10T19:37:25.841Z,100525.97
2023-04-10T19:42:27.541Z,100513.81
2023-04-10T19:47:29.113Z,100517.97
2023-04-10T19:52:30.765Z,100525.13
2023-04-10T19:57:32.330Z,100527.00
2023-04-10T20:02:34.079Z,100525.00
2023-04-10T20:07:36.293Z,100535.31
2023-04-10T20:12:37.951Z,100540.41
2023-04-10T20:17:39.596Z,100535.97
2023-04-10T20:22:41.260Z,100549.91
2023-04-10T20:27:42.774Z,100545.25
2023-04-10T20:32:44.338Z,100543.03
2023-04-10T20:37:45.888Z,100560.63
2023-04-10T20:42:47.488Z,100587.50
2023-04-10T20:47:49.049Z,100580.16
2023-04-10T20:52:50.584Z,100587.97
2023-04-10T20:57:52.161Z,100564.00
2023-04-10T21:02:53.978Z,100562.81
2023-04-10T21:07:55.688Z,100566.34
2023-04-10T21:12:57.303Z,100588.09
2023-04-10T21:17:58.907Z,100560.97
2023-04-10T21:23:01.301Z,100547.16
2023-04-10T21:28:02.956Z,100554.22
2023-04-10T21:33:04.768Z,100531.31
2023-04-10T21:38:06.409Z,100553.31
2023-04-10T21:43:07.996Z,100524.16
2023-04-10T21:48:09.609Z,100541.31
2023-04-10T21:53:11.235Z,100546.69
2023-04-10T21:58:12.855Z,100528.16
2023-04-10T22:03:15.160Z,100549.44
2023-04-10T22:08:16.857Z,100520.75
2023-04-10T22:13:29.794Z,100441.09
2023-04-10T22:18:32.712Z,100378.59
2023-04-10T22:23:34.453Z,100425.25
2023-04-10T22:28:36.327Z,100462.50
2023-04-10T22:33:38.085Z,100472.13
2023-04-10T22:38:39.875Z,100483.00
2023-04-10T22:43:41.615Z,100462.97
2023-04-10T22:48:44.481Z,100432.09
2023-04-10T22:53:47.730Z,100425.84
2023-04-10T22:58:49.309Z,100405.63
2023-04-10T23:03:50.941Z,100429.78
2023-04-10T23:08:52.920Z,100446.78
2023-04-10T23:13:54.707Z,100423.19
2023-04-10T23:18:56.573Z,100431.22
2023-04-10T23:23:58.415Z,100423.56
2023-04-10T23:29:00.828Z,100425.38
2023-04-10T23:34:03.812Z,100446.78
2023-04-10T23:39:05.486Z,100444.19
2023-04-10T23:44:07.215Z,100455.66
2023-04-10T23:49:08.910Z,100461.44
2023-04-10T23:54:11.833Z,100466.09
2023-04-10T23:59:13.464Z,100458.38
